Time;durP1;ratioP1;P1;durP2;ratioP2;P2;SDS_P1;SDS_P2;PMS_P1;PMS_P2;Temp;Humidity;BMP_temperature;BMP_pressure;BME280_temperature;BME280_humidity;BME280_pressure;Samples;Min_cycle;Max_cycle;Signal;HPM_P1;HPM_P2
2022/11/19 00:01:19;;;;;;;11.50;6.57;;;2.40;93.90;;;;;;5093666;28;20052;-72
2022/11/19 00:03:45;;;;;;;10.88;6.18;;;2.40;93.90;;;;;;5093638;28;20089;-72
2022/11/19 00:06:14;;;;;;;13.25;6.57;;;2.30;93.90;;;;;;5075649;28;20085;-73
2022/11/19 00:08:40;;;;;;;11.43;6.63;;;2.40;94.00;;;;;;5093221;28;20051;-71
2022/11/19 00:11:07;;;;;;;13.07;6.97;;;2.40;94.10;;;;;;5093196;28;20031;-73
2022/11/19 00:13:33;;;;;;;8.73;5.53;;;2.40;94.10;;;;;;5093130;28;20543;-72
2022/11/19 00:16:06;;;;;;;12.40;6.60;;;2.40;94.00;;;;;;5093251;28;20336;-72
2022/11/19 00:18:32;;;;;;;10.73;6.60;;;2.40;94.10;;;;;;5092248;28;20024;-71
2022/11/19 00:21:09;;;;;;;11.00;6.57;;;2.40;94.00;;;;;;5075376;28;20053;-72
2022/11/19 00:23:36;;;;;;;15.43;7.38;;;2.40;94.10;;;;;;5093045;28;20090;-72
2022/11/19 00:26:13;;;;;;;12.15;6.28;;;2.40;94.10;;;;;;5092848;28;20123;-72
2022/11/19 00:28:39;;;;;;;15.38;6.13;;;2.40;94.00;;;;;;5092766;28;20032;-72
2022/11/19 00:31:08;;;;;;;11.00;6.07;;;2.40;94.00;;;;;;5092854;28;20039;-72
2022/11/19 00:33:35;;;;;;;8.43;5.93;;;2.40;93.90;;;;;;5092768;28;20077;-73
2022/11/19 00:36:02;;;;;;;12.73;6.95;;;2.40;94.00;;;;;;5093210;28;20024;-73
2022/11/19 00:38:29;;;;;;;13.40;6.90;;;2.40;94.10;;;;;;5092649;28;20040;-72
2022/11/19 00:40:55;;;;;;;13.85;7.03;;;2.40;94.00;;;;;;5074757;28;20024;-73
2022/11/19 00:46:05;;;;;;;13.68;7.25;;;2.30;94.00;;;;;;5092432;28;20522;-74
2022/11/19 00:48:31;;;;;;;11.85;6.55;;;2.30;94.00;;;;;;5092327;28;20032;-72
2022/11/19 00:50:57;;;;;;;12.25;7.30;;;2.30;94.00;;;;;;5092748;28;20563;-73
2022/11/19 00:53:23;;;;;;;11.93;6.88;;;2.30;93.90;;;;;;5092268;28;20043;-73
2022/11/19 00:55:48;;;;;;;14.60;6.82;;;2.30;93.90;;;;;;5092602;28;20028;-73
2022/11/19 00:58:14;;;;;;;11.05;6.60;;;2.30;93.70;;;;;;5092337;28;20056;-73
2022/11/19 01:00:40;;;;;;;12.13;7.18;;;2.20;93.70;;;;;;5074314;28;20031;-73
2022/11/19 01:03:06;;;;;;;12.43;6.68;;;2.20;93.80;;;;;;5092752;28;20040;-73
2022/11/19 01:05:32;;;;;;;11.57;6.75;;;2.10;93.90;;;;;;5092077;28;20127;-73
2022/11/19 01:07:58;;;;;;;11.80;7.07;;;2.20;93.90;;;;;;5074143;28;20119;-72
2022/11/19 01:10:23;;;;;;;14.10;7.40;;;2.10;93.90;;;;;;5074018;28;20165;-73
2022/11/19 01:15:33;;;;;;;11.45;6.75;;;2.10;94.00;;;;;;5092019;28;20063;-72
2022/11/19 01:17:59;;;;;;;12.60;7.50;;;2.10;94.00;;;;;;5092568;28;20422;-72
2022/11/19 01:20:25;;;;;;;10.15;6.43;;;2.10;94.00;;;;;;5091825;28;20104;-72
2022/11/19 01:22:50;;;;;;;13.55;6.93;;;2.10;94.20;;;;;;5092014;28;20062;-71
2022/11/19 01:25:16;;;;;;;10.43;6.45;;;2.00;93.90;;;;;;5081137;28;20029;-72
2022/11/19 01:27:41;;;;;;;11.25;7.15;;;2.10;93.80;;;;;;5070432;28;20039;-73
2022/11/19 01:30:08;;;;;;;12.30;7.03;;;2.00;93.90;;;;;;5072066;28;20113;-72
2022/11/19 01:32:34;;;;;;;14.60;7.65;;;2.00;93.90;;;;;;5071181;28;20444;-72
2022/11/19 01:35:00;;;;;;;13.32;7.65;;;1.90;93.90;;;;;;5071158;28;20048;-70
2022/11/19 01:37:25;;;;;;;12.07;6.57;;;1.90;94.00;;;;;;5071109;28;20371;-71
2022/11/19 01:39:51;;;;;;;10.57;6.57;;;1.90;94.20;;;;;;5071193;28;20036;-72
2022/11/19 01:42:52;;;;;;;14.27;7.28;;;1.90;94.00;;;;;;5071504;28;20036;-72
2022/11/19 01:45:28;;;;;;;13.15;7.32;;;1.90;94.00;;;;;;5071284;28;20461;-73
2022/11/19 01:48:04;;;;;;;14.82;7.68;;;1.90;94.10;;;;;;5071400;28;20076;-72
2022/11/19 01:50:33;;;;;;;13.77;7.75;;;1.90;94.10;;;;;;5053493;28;20378;-72
2022/11/19 01:53:00;;;;;;;13.75;7.95;;;1.90;94.00;;;;;;5071010;28;20253;-73
2022/11/19 01:55:27;;;;;;;14.07;7.57;;;1.90;94.00;;;;;;5070969;28;20031;-73
2022/11/19 01:58:00;;;;;;;11.43;7.35;;;1.90;94.10;;;;;;5070959;28;20389;-73
2022/11/19 02:00:26;;;;;;;12.48;6.72;;;1.80;94.20;;;;;;5070823;28;20512;-72
2022/11/19 02:02:53;;;;;;;11.48;7.25;;;1.80;94.00;;;;;;5071781;28;20037;-73
2022/11/19 02:05:20;;;;;;;12.52;7.53;;;1.80;94.00;;;;;;5071035;28;20362;-73
2022/11/19 02:07:53;;;;;;;12.40;7.15;;;1.80;94.10;;;;;;5070592;28;20040;-72
2022/11/19 02:10:43;;;;;;;11.00;6.80;;;1.80;94.00;;;;;;5070527;28;20036;-73
2022/11/19 02:13:29;;;;;;;12.68;6.90;;;1.80;94.00;;;;;;5056831;28;20332;-72
2022/11/19 02:16:05;;;;;;;14.38;7.15;;;1.70;94.10;;;;;;5070593;28;20029;-73
2022/11/19 02:18:52;;;;;;;12.27;7.30;;;1.60;94.20;;;;;;5070610;28;20036;-73
2022/11/19 02:21:23;;;;;;;13.82;7.72;;;1.60;94.30;;;;;;5071305;28;20309;-73
2022/11/19 02:24:17;;;;;;;13.63;7.30;;;1.70;94.20;;;;;;5070489;28;20028;-73
2022/11/19 02:27:31;;;;;;;13.45;7.70;;;1.60;94.20;;;;;;5070295;28;20044;-73
2022/11/19 02:30:11;;;;;;;12.57;6.85;;;1.70;94.20;;;;;;5027248;28;20033;-73
2022/11/19 02:32:48;;;;;;;13.65;6.90;;;1.70;94.10;;;;;;5071129;28;20031;-73
2022/11/19 02:35:20;;;;;;;13.43;7.35;;;1.60;94.20;;;;;;5074032;28;20036;-73
2022/11/19 02:38:12;;;;;;;13.25;7.55;;;1.50;94.20;;;;;;5090537;28;20044;-73
2022/11/19 02:40:43;;;;;;;11.75;7.40;;;1.50;94.30;;;;;;5072028;28;20411;-73
2022/11/19 02:43:27;;;;;;;12.05;6.55;;;1.50;94.30;;;;;;5090278;28;20123;-72
2022/11/19 02:46:02;;;;;;;13.32;7.07;;;1.50;94.30;;;;;;5090746;28;20531;-73
2022/11/19 02:48:37;;;;;;;15.23;7.15;;;1.50;94.30;;;;;;5090454;28;20032;-72
2022/11/19 02:51:04;;;;;;;12.82;7.63;;;1.50;94.30;;;;;;5090960;28;20013;-73
2022/11/19 02:53:31;;;;;;;12.38;7.40;;;1.50;94.30;;;;;;5090559;28;20570;-73
2022/11/19 02:56:09;;;;;;;11.68;6.82;;;1.40;94.30;;;;;;5090454;28;20407;-73
2022/11/19 03:04:31;;;;;;;;;;;1.30;94.40;;;;;;5090897;28;20035;-72
2022/11/19 03:07:03;;;;;;;16.83;7.13;;;1.40;94.50;;;;;;5090441;28;19923;-73
2022/11/19 03:09:30;;;;;;;13.60;7.72;;;1.40;94.50;;;;;;5072541;28;20062;-72
2022/11/19 03:12:06;;;;;;;12.27;7.47;;;1.40;94.40;;;;;;5090604;28;20027;-72
2022/11/19 03:17:43;;;;;;;14.48;6.80;;;1.40;94.30;;;;;;5090323;28;20469;-72
2022/11/19 03:20:21;;;;;;;13.00;6.82;;;1.30;94.20;;;;;;5090285;28;20020;-72
2022/11/19 03:23:03;;;;;;;13.75;7.80;;;1.40;94.30;;;;;;5090209;28;20524;-72
2022/11/19 03:25:37;;;;;;;13.52;7.70;;;1.30;94.30;;;;;;5090203;28;20047;-72
2022/11/19 03:28:11;;;;;;;12.60;7.03;;;1.40;94.40;;;;;;5090206;28;20032;-73
2022/11/19 03:30:39;;;;;;;10.68;6.93;;;1.30;94.40;;;;;;5089942;28;20020;-73
2022/11/19 03:33:26;;;;;;;13.88;7.18;;;1.30;94.40;;;;;;5072589;28;20131;-73
2022/11/19 03:35:53;;;;;;;;;;;1.30;94.30;;;;;;5090799;28;20097;-73
2022/11/19 03:38:28;;;;;;;13.40;6.97;;;1.40;94.30;;;;;;5090383;28;20276;-73
2022/11/19 03:40:55;;;;;;;12.20;6.47;;;1.30;94.30;;;;;;5090386;28;20303;-73
2022/11/19 03:43:23;;;;;;;11.45;6.53;;;1.30;94.30;;;;;;5089853;28;20051;-72
2022/11/19 03:45:52;;;;;;;10.40;6.70;;;1.30;94.30;;;;;;5090030;28;20028;-72
2022/11/19 03:48:21;;;;;;;11.05;6.13;;;1.40;94.20;;;;;;5090398;28;20116;-73
2022/11/19 03:51:22;;;;;;;19.80;7.50;;;1.30;94.10;;;;;;5072000;28;20609;-74
2022/11/19 03:53:48;;;;;;;12.02;7.22;;;1.20;94.10;;;;;;5049226;28;20040;-73
2022/11/19 03:56:17;;;;;;;14.48;7.10;;;1.20;94.20;;;;;;5093521;28;20024;-73
2022/11/19 03:58:45;;;;;;;12.85;7.40;;;1.10;94.30;;;;;;5093507;28;20056;-73
2022/11/19 04:01:11;;;;;;;11.98;6.70;;;1.20;94.30;;;;;;5093325;28;20371;-73
2022/11/19 04:03:37;;;;;;;10.82;6.30;;;1.10;94.30;;;;;;5093184;28;20048;-73
2022/11/19 04:06:04;;;;;;;13.32;7.32;;;1.10;94.30;;;;;;5093761;28;20465;-74
2022/11/19 04:08:30;;;;;;;11.52;7.00;;;1.10;94.30;;;;;;5093255;28;20038;-73
2022/11/19 04:10:57;;;;;;;12.70;6.80;;;1.10;94.30;;;;;;5075295;28;20025;-72
2022/11/19 04:13:23;;;;;;;11.82;6.90;;;1.10;94.30;;;;;;5093438;28;20028;-73
2022/11/19 04:15:48;;;;;;;12.50;6.47;;;1.10;94.30;;;;;;5093364;28;20032;-73
2022/11/19 04:18:14;;;;;;;12.05;6.53;;;1.10;94.20;;;;;;5093667;28;20103;-72
2022/11/19 04:20:42;;;;;;;12.85;6.63;;;1.10;94.20;;;;;;5093199;28;20141;-73
2022/11/19 04:23:08;;;;;;;11.85;7.00;;;1.10;94.20;;;;;;5075229;28;20086;-72
2022/11/19 04:25:39;;;;;;;14.02;7.13;;;1.00;94.20;;;;;;5093733;28;20040;-72
2022/11/19 04:28:04;;;;;;;13.40;6.30;;;1.00;94.30;;;;;;5093112;28;20028;-72
2022/11/19 04:30:30;;;;;;;18.00;6.85;;;1.00;94.30;;;;;;5092852;28;20089;-72
2022/11/19 04:32:55;;;;;;;11.68;6.45;;;1.10;94.20;;;;;;5093246;28;20027;-72
2022/11/19 04:35:21;;;;;;;10.77;6.03;;;1.00;94.20;;;;;;5092821;28;20399;-72
2022/11/19 04:37:47;;;;;;;12.07;6.50;;;1.00;94.20;;;;;;5092573;28;20059;-72
2022/11/19 04:40:13;;;;;;;15.32;7.30;;;1.00;94.20;;;;;;5092583;28;20537;-72
2022/11/19 04:42:39;;;;;;;12.00;6.40;;;1.00;94.20;;;;;;5092181;28;20115;-72
2022/11/19 04:45:05;;;;;;;12.13;6.95;;;0.90;94.20;;;;;;5092836;28;20075;-72
2022/11/19 04:47:31;;;;;;;12.48;6.85;;;0.80;94.30;;;;;;5092827;28;20024;-74
2022/11/19 04:49:57;;;;;;;13.57;5.85;;;0.70;94.40;;;;;;5092525;28;20412;-72
2022/11/19 04:52:23;;;;;;;10.07;5.90;;;0.70;94.50;;;;;;5092332;28;20043;-72
2022/11/19 04:54:48;;;;;;;12.40;6.82;;;0.80;94.50;;;;;;5092227;28;20066;-72
2022/11/19 04:57:14;;;;;;;12.63;7.22;;;0.80;94.40;;;;;;5092825;28;20084;-71
2022/11/19 04:59:39;;;;;;;11.93;7.07;;;0.70;94.40;;;;;;5092166;28;20149;-73
2022/11/19 05:02:05;;;;;;;10.10;6.22;;;0.70;94.50;;;;;;5092224;28;20039;-72
2022/11/19 05:04:31;;;;;;;13.30;6.95;;;0.80;94.50;;;;;;5091679;28;20043;-72
2022/11/19 05:06:56;;;;;;;9.40;5.78;;;0.80;94.50;;;;;;5092200;28;20061;-72
2022/11/19 05:09:22;;;;;;;10.88;6.30;;;0.70;94.50;;;;;;5092520;28;20032;-72
2022/11/19 05:11:47;;;;;;;14.27;6.68;;;0.70;94.60;;;;;;5091907;28;20035;-72
2022/11/19 05:14:13;;;;;;;11.07;6.63;;;0.70;94.60;;;;;;5091908;28;20043;-72
2022/11/19 05:16:39;;;;;;;11.45;6.70;;;0.80;94.60;;;;;;5092078;28;20032;-72
2022/11/19 05:19:04;;;;;;;12.23;6.43;;;0.90;94.50;;;;;;5092195;28;20028;-73
2022/11/19 05:21:30;;;;;;;13.27;6.60;;;0.80;94.50;;;;;;5073895;28;20040;-72
2022/11/19 05:23:56;;;;;;;12.10;6.40;;;0.80;94.80;;;;;;5092181;28;20012;-72
2022/11/19 05:26:21;;;;;;;9.63;5.65;;;0.80;94.50;;;;;;5073776;28;20116;-72
2022/11/19 05:28:47;;;;;;;10.13;6.32;;;0.80;94.50;;;;;;5091795;28;20059;-72
2022/11/19 05:31:13;;;;;;;10.35;6.10;;;0.80;94.70;;;;;;5091616;28;20028;-73
2022/11/19 05:33:38;;;;;;;12.73;6.18;;;0.80;94.50;;;;;;5091407;28;20020;-73
2022/11/19 05:36:04;;;;;;;13.18;6.75;;;0.90;94.50;;;;;;5091970;28;20104;-73
2022/11/19 05:38:30;;;;;;;14.38;6.68;;;0.90;94.50;;;;;;5073525;28;20042;-72
2022/11/19 05:40:56;;;;;;;10.50;6.45;;;0.90;94.40;;;;;;5091394;28;20028;-72
2022/11/19 05:43:22;;;;;;;11.13;5.70;;;0.80;94.40;;;;;;5091417;28;20387;-73
2022/11/19 05:45:47;;;;;;;12.55;6.15;;;0.80;94.30;;;;;;5091252;28;20043;-72
2022/11/19 05:48:14;;;;;;;14.00;6.78;;;0.70;94.40;;;;;;5091642;28;20028;-71
2022/11/19 05:50:42;;;;;;;12.38;5.88;;;0.70;94.50;;;;;;5091234;28;20035;-73
2022/11/19 05:53:09;;;;;;;17.05;6.47;;;0.70;94.50;;;;;;5091413;28;20036;-72
2022/11/19 05:55:35;;;;;;;11.20;6.25;;;0.70;94.50;;;;;;5091269;28;20032;-72
2022/11/19 05:58:00;;;;;;;11.75;6.10;;;0.70;94.50;;;;;;5091191;28;20050;-74
2022/11/19 06:00:26;;;;;;;14.45;6.00;;;0.70;94.50;;;;;;5091053;28;20517;-72
2022/11/19 06:02:52;;;;;;;13.55;6.35;;;0.70;94.60;;;;;;5073633;28;20019;-72
2022/11/19 06:05:17;;;;;;;12.05;6.70;;;0.70;94.60;;;;;;5090934;28;20366;-73
2022/11/19 06:07:43;;;;;;;11.13;6.63;;;0.70;94.70;;;;;;5091027;28;20354;-73
2022/11/19 06:10:09;;;;;;;14.18;6.85;;;0.70;94.70;;;;;;5072945;28;20040;-72
2022/11/19 06:12:35;;;;;;;10.30;6.13;;;0.80;94.70;;;;;;5072730;28;20058;-72
2022/11/19 06:15:01;;;;;;;14.23;6.97;;;0.90;95.00;;;;;;5090801;28;20442;-73
2022/11/19 06:17:27;;;;;;;14.60;7.03;;;0.90;94.80;;;;;;5073169;28;20044;-72
2022/11/19 06:19:53;;;;;;;14.27;6.43;;;0.90;94.70;;;;;;5091358;28;20075;-72
2022/11/19 06:22:19;;;;;;;13.15;6.82;;;1.00;94.70;;;;;;5090910;28;20060;-71
2022/11/19 06:24:44;;;;;;;14.13;6.88;;;0.90;94.50;;;;;;5090750;28;20043;-72
2022/11/19 06:27:10;;;;;;;14.30;6.57;;;0.90;94.50;;;;;;5091199;28;20016;-72
2022/11/19 06:29:36;;;;;;;12.82;6.50;;;0.90;94.50;;;;;;5091027;28;20533;-73
2022/11/19 06:32:01;;;;;;;14.68;6.22;;;1.00;94.50;;;;;;5090690;28;20028;-73
2022/11/19 06:34:27;;;;;;;8.80;5.60;;;0.90;94.40;;;;;;5090773;28;20103;-73
2022/11/19 06:36:53;;;;;;;12.52;6.43;;;0.90;94.40;;;;;;5090752;28;20032;-72
2022/11/19 06:39:18;;;;;;;10.40;5.20;;;0.90;94.40;;;;;;5090918;28;20024;-73
2022/11/19 06:41:47;;;;;;;11.02;5.60;;;0.80;94.40;;;;;;5090727;28;20035;-72
2022/11/19 06:44:13;;;;;;;10.15;6.00;;;0.70;94.30;;;;;;5090532;28;20372;-73
2022/11/19 06:46:39;;;;;;;10.27;5.90;;;0.70;94.40;;;;;;5090703;28;20036;-74
2022/11/19 06:49:05;;;;;;;12.73;6.00;;;0.80;94.40;;;;;;5090519;28;20378;-73
2022/11/19 06:51:32;;;;;;;10.07;6.22;;;0.80;94.30;;;;;;5072491;28;20073;-74
2022/11/19 06:53:57;;;;;;;9.63;5.60;;;0.80;94.20;;;;;;5090823;28;20035;-72
2022/11/19 06:56:23;;;;;;;9.40;5.50;;;0.70;94.40;;;;;;5090669;28;20028;-71
2022/11/19 06:58:49;;;;;;;10.10;5.43;;;0.70;94.50;;;;;;5090608;28;20423;-72
2022/11/19 07:01:14;;;;;;;10.05;5.40;;;0.80;94.60;;;;;;5090647;28;20038;-72
2022/11/19 07:03:41;;;;;;;11.80;5.65;;;0.70;94.60;;;;;;5072440;28;20021;-72
2022/11/19 07:06:07;;;;;;;10.18;5.25;;;0.80;94.50;;;;;;5072788;28;20470;-73
2022/11/19 07:08:34;;;;;;;9.15;5.30;;;0.80;94.30;;;;;;5090305;28;20044;-73
2022/11/19 07:11:01;;;;;;;10.63;6.45;;;0.80;94.30;;;;;;5090803;28;20331;-73
2022/11/19 07:13:55;;;;;;;11.65;6.10;;;0.70;94.30;;;;;;5090492;28;20054;-72
2022/11/19 07:16:12;;;;;;;14.77;5.97;;;0.80;94.40;;;;;;5090110;28;20035;-73
2022/11/19 07:18:40;;;;;;;9.93;5.57;;;0.80;94.30;;;;;;5090277;28;20032;-73
2022/11/19 07:21:05;;;;;;;;;;;0.80;94.40;;;;;;5091377;28;20020;-72
2022/11/19 07:23:31;;;;;;;10.70;5.60;;;0.70;94.30;;;;;;5090222;28;19961;-73
2022/11/19 07:26:00;;;;;;;10.85;5.85;;;0.70;94.30;;;;;;5090183;28;20024;-72
2022/11/19 07:28:26;;;;;;;10.85;6.20;;;0.70;94.40;;;;;;5094145;28;20032;-73
2022/11/19 07:30:51;;;;;;;9.82;5.63;;;0.70;94.30;;;;;;5094114;28;20028;-73
2022/11/19 07:33:17;;;;;;;11.20;5.70;;;0.80;94.30;;;;;;5094373;28;20047;-72
2022/11/19 07:35:43;;;;;;;9.02;5.50;;;0.80;94.30;;;;;;5094000;28;20123;-73
2022/11/19 07:38:09;;;;;;;9.45;5.20;;;0.70;94.20;;;;;;5093778;28;20024;-72
2022/11/19 07:40:34;;;;;;;8.85;5.13;;;0.80;94.30;;;;;;5094334;28;20040;-73
2022/11/19 07:43:00;;;;;;;11.40;5.57;;;0.70;94.40;;;;;;5093693;28;20125;-72
2022/11/19 07:45:25;;;;;;;11.50;6.20;;;0.70;94.40;;;;;;5093721;28;20028;-72
2022/11/19 07:47:51;;;;;;;10.15;6.20;;;0.80;94.50;;;;;;5076191;28;20020;-71
2022/11/19 07:50:17;;;;;;;11.32;6.28;;;0.80;94.30;;;;;;5093710;28;20107;-71
2022/11/19 07:52:43;;;;;;;9.73;5.75;;;0.90;94.50;;;;;;5093752;28;20357;-73
2022/11/19 07:55:08;;;;;;;9.48;6.05;;;0.90;94.40;;;;;;5093685;28;20032;-73
2022/11/19 07:57:34;;;;;;;11.98;5.32;;;0.90;94.30;;;;;;5093431;28;20028;-71
2022/11/19 08:00:01;;;;;;;10.90;5.53;;;0.90;94.40;;;;;;5094200;28;20349;-72
2022/11/19 08:02:27;;;;;;;11.15;5.47;;;0.90;94.40;;;;;;5093330;28;20365;-73
2022/11/19 08:04:52;;;;;;;11.30;6.00;;;0.90;94.40;;;;;;5093561;28;20032;-72
2022/11/19 08:07:18;;;;;;;9.80;5.25;;;0.90;94.50;;;;;;5093243;28;20036;-70
2022/11/19 08:09:43;;;;;;;9.60;5.57;;;0.90;94.40;;;;;;5093347;28;20059;-73
2022/11/19 08:12:09;;;;;;;9.30;5.72;;;0.90;94.40;;;;;;5093591;28;20095;-72
2022/11/19 08:14:35;;;;;;;11.00;5.75;;;0.90;94.50;;;;;;5075222;28;20641;-71
2022/11/19 08:19:45;;;;;;;12.13;5.95;;;1.10;94.40;;;;;;5093336;28;20039;-73
2022/11/19 08:22:11;;;;;;;13.63;5.57;;;1.10;94.20;;;;;;5075158;28;20028;-72
2022/11/19 08:24:36;;;;;;;11.73;6.20;;;1.40;94.80;;;;;;5075078;28;20085;-72
2022/11/19 08:27:04;;;;;;;14.75;5.57;;;1.50;94.30;;;;;;5093324;28;20085;-72
2022/11/19 08:29:29;;;;;;;10.88;6.28;;;1.50;94.30;;;;;;5093025;28;20025;-72
2022/11/19 08:31:55;;;;;;;11.18;6.00;;;1.50;94.10;;;;;;5093104;28;20522;-73
2022/11/19 08:34:21;;;;;;;11.27;6.45;;;1.50;94.10;;;;;;5092688;28;20112;-72
2022/11/19 08:36:47;;;;;;;12.18;6.03;;;1.50;94.20;;;;;;5092742;28;20044;-73
2022/11/19 08:39:12;;;;;;;9.25;5.28;;;1.50;94.10;;;;;;5074700;28;20055;-72
2022/11/19 08:44:23;;;;;;;11.05;5.03;;;1.60;94.30;;;;;;5091014;28;20130;-74
2022/11/19 08:46:49;;;;;;;12.10;6.00;;;1.70;94.40;;;;;;5092539;28;20051;-73
2022/11/19 08:49:15;;;;;;;13.25;6.53;;;1.60;94.20;;;;;;5092547;28;20115;-73
2022/11/19 08:51:41;;;;;;;9.45;5.20;;;1.70;94.30;;;;;;5074339;28;20020;-73
2022/11/19 08:54:07;;;;;;;10.65;5.95;;;1.60;94.00;;;;;;5092700;28;20484;-72
2022/11/19 08:56:33;;;;;;;40.70;19.13;;;1.70;94.20;;;;;;5092838;28;20036;-71
2022/11/19 08:58:59;;;;;;;57.33;24.65;;;1.80;94.20;;;;;;5099496;28;20521;-72
2022/11/19 09:01:24;;;;;;;16.58;8.75;;;1.90;94.20;;;;;;5092234;28;20115;-73
2022/11/19 09:03:50;;;;;;;17.90;6.57;;;1.80;94.20;;;;;;5092217;28;20062;-74
2022/11/19 09:06:16;;;;;;;18.10;7.20;;;1.90;94.10;;;;;;5092545;28;20032;-72
2022/11/19 09:08:42;;;;;;;11.30;6.65;;;1.90;93.80;;;;;;5091983;28;20024;-73
2022/11/19 09:11:11;;;;;;;15.23;6.68;;;2.00;93.90;;;;;;5092043;28;20039;-74
2022/11/19 09:13:37;;;;;;;13.18;6.68;;;2.10;93.90;;;;;;5091884;28;20055;-75
2022/11/19 09:16:04;;;;;;;14.57;6.82;;;2.10;93.90;;;;;;5092198;28;20058;-74
2022/11/19 09:18:31;;;;;;;15.07;6.63;;;2.10;93.90;;;;;;5074080;28;20414;-72
2022/11/19 09:20:57;;;;;;;12.63;6.53;;;2.20;93.90;;;;;;5092427;28;20381;-73
2022/11/19 09:23:24;;;;;;;10.35;6.55;;;2.30;93.90;;;;;;5092089;28;20028;-74
2022/11/19 09:26:02;;;;;;;12.07;6.53;;;2.30;93.70;;;;;;5091882;28;20127;-73
2022/11/19 09:28:29;;;;;;;11.20;6.20;;;2.30;93.60;;;;;;5092116;28;20060;-74
2022/11/19 09:31:06;;;;;;;13.95;6.13;;;2.40;93.60;;;;;;5091845;28;20466;-73
2022/11/19 09:33:33;;;;;;;;;;;2.40;93.50;;;;;;5091998;28;20140;-75
2022/11/19 09:35:59;;;;;;;12.80;6.60;;;2.40;93.60;;;;;;5092064;28;19995;-73
2022/11/19 09:38:26;;;;;;;11.52;5.63;;;2.40;93.40;;;;;;5091267;28;20107;-74
2022/11/19 09:40:56;;;;;;;15.10;6.47;;;2.50;93.30;;;;;;5091875;28;20028;-75
2022/11/19 09:43:52;;;;;;;15.85;6.53;;;2.60;93.50;;;;;;5091342;28;20048;-75
2022/11/19 09:46:39;;;;;;;12.10;6.13;;;2.60;93.30;;;;;;5091323;28;20096;-73
2022/11/19 09:49:13;;;;;;;12.13;6.30;;;2.70;93.30;;;;;;5091435;28;20052;-73
2022/11/19 09:51:41;;;;;;;13.18;6.47;;;2.80;93.10;;;;;;5091300;28;20123;-77
2022/11/19 09:54:15;;;;;;;12.65;5.95;;;2.80;93.20;;;;;;5091825;28;20048;-75
2022/11/19 09:56:43;;;;;;;10.70;5.95;;;2.80;92.90;;;;;;5090901;28;20028;-72
2022/11/19 09:59:24;;;;;;;;;;;2.70;92.70;;;;;;5091638;28;20047;-74
2022/11/19 10:01:50;;;;;;;11.07;5.80;;;2.90;93.20;;;;;;5091230;28;19907;-75
2022/11/19 10:04:21;;;;;;;12.18;6.50;;;2.90;93.00;;;;;;5073328;28;20311;-75
2022/11/19 10:07:07;;;;;;;10.90;5.00;;;2.90;92.60;;;;;;5090860;28;20035;-73
2022/11/19 10:09:51;;;;;;;11.40;5.55;;;3.00;92.80;;;;;;5049252;28;20050;-75
2022/11/19 10:12:31;;;;;;;16.02;6.95;;;3.00;92.80;;;;;;5091265;28;20510;-74
2022/11/19 10:15:11;;;;;;;9.30;5.63;;;3.10;92.80;;;;;;5072935;28;20240;-73
2022/11/19 10:17:44;;;;;;;11.38;5.95;;;3.20;93.00;;;;;;5090928;28;20035;-73
2022/11/19 10:20:31;;;;;;;11.13;6.03;;;3.20;92.20;;;;;;5090711;28;20043;-73
2022/11/19 10:23:08;;;;;;;11.00;6.22;;;3.20;92.10;;;;;;5090810;28;20533;-71
2022/11/19 10:25:47;;;;;;;13.13;6.72;;;3.30;92.20;;;;;;5090629;28;20449;-72
2022/11/19 10:28:19;;;;;;;9.88;5.15;;;3.20;92.00;;;;;;5090897;28;20537;-74
2022/11/19 10:30:51;;;;;;;15.85;6.65;;;3.30;92.10;;;;;;5072896;28;20063;-75
2022/11/19 10:33:29;;;;;;;10.88;6.25;;;3.40;92.40;;;;;;5073104;28;20023;-72
2022/11/19 10:36:09;;;;;;;13.48;5.85;;;3.50;92.20;;;;;;5090877;28;20493;-73
2022/11/19 10:38:54;;;;;;;13.18;5.53;;;3.60;92.20;;;;;;5090535;28;20028;-70
2022/11/19 10:41:41;;;;;;;14.38;6.90;;;3.60;92.20;;;;;;5072334;28;20433;-71
2022/11/19 10:44:40;;;;;;;13.97;6.37;;;3.70;92.20;;;;;;5090398;28;20439;-72
2022/11/19 10:47:23;;;;;;;12.55;6.30;;;3.80;92.10;;;;;;5061552;28;20269;-71
2022/11/19 10:49:53;;;;;;;16.50;5.85;;;4.00;92.00;;;;;;5090296;28;20040;-73
2022/11/19 10:52:25;;;;;;;11.82;5.78;;;4.30;92.20;;;;;;5090372;28;20028;-73
2022/11/19 10:54:55;;;;;;;9.75;5.80;;;5.30;92.30;;;;;;5090436;28;20028;-74
2022/11/19 10:57:22;;;;;;;12.20;5.97;;;6.70;92.40;;;;;;5090592;28;20039;-75
2022/11/19 10:59:49;;;;;;;13.20;5.50;;;7.70;90.20;;;;;;5090397;28;20419;-73
2022/11/19 11:02:23;;;;;;;14.55;4.82;;;8.60;87.00;;;;;;5092484;28;20050;-76
2022/11/19 11:05:01;;;;;;;9.40;5.45;;;9.10;81.80;;;;;;5076624;28;20028;-70
2022/11/19 11:07:54;;;;;;;10.43;5.30;;;10.20;80.20;;;;;;5076561;28;20030;-79
2022/11/19 11:10:25;;;;;;;12.02;5.22;;;10.60;79.80;;;;;;5094317;28;20032;-75
2022/11/19 11:15:45;;;;;;;9.00;4.82;;;11.60;75.30;;;;;;5094519;28;20038;-72
2022/11/19 11:18:14;;;;;;;10.40;4.82;;;11.70;70.80;;;;;;5094514;28;20042;-76
2022/11/19 11:20:49;;;;;;;;;;;11.80;71.20;;;;;;5094561;28;20032;-72
2022/11/19 11:23:17;;;;;;;8.15;4.65;;;12.00;70.50;;;;;;5094072;28;19908;-74
2022/11/19 11:26:05;;;;;;;6.27;3.70;;;12.60;69.80;;;;;;5093914;28;20093;-73
2022/11/19 11:28:31;;;;;;;7.88;4.75;;;12.50;65.10;;;;;;5093994;28;20476;-72
2022/11/19 11:31:09;;;;;;;8.38;4.35;;;12.10;65.90;;;;;;5076171;28;20035;-74
2022/11/19 11:33:52;;;;;;;6.75;3.63;;;12.10;64.20;;;;;;5093844;28;20016;-72
2022/11/19 11:36:23;;;;;;;8.93;4.07;;;11.30;64.70;;;;;;5076215;28;20034;-71
2022/11/19 11:38:53;;;;;;;10.30;4.45;;;10.30;64.70;;;;;;5093732;28;20453;-72
2022/11/19 11:41:21;;;;;;;9.90;5.30;;;10.10;67.80;;;;;;5093790;28;20064;-72
2022/11/19 11:44:05;;;;;;;7.90;4.65;;;10.10;68.70;;;;;;5093789;28;20052;-70
2022/11/19 11:46:49;;;;;;;7.10;4.18;;;9.90;69.20;;;;;;5093439;28;20032;-72
2022/11/19 11:49:35;;;;;;;9.05;4.20;;;9.70;68.20;;;;;;5075766;28;20036;-73
2022/11/19 11:52:27;;;;;;;8.98;4.68;;;9.30;69.20;;;;;;5093906;28;20024;-73
2022/11/19 11:55:00;;;;;;;8.18;5.05;;;9.30;69.90;;;;;;5093575;28;20032;-74
2022/11/19 11:57:33;;;;;;;17.67;5.80;;;9.20;69.70;;;;;;5093466;28;20024;-73
2022/11/19 12:00:02;;;;;;;9.77;4.95;;;8.80;71.00;;;;;;5076246;28;20024;-73
2022/11/19 12:02:32;;;;;;;9.45;4.50;;;8.60;70.40;;;;;;5075594;28;20050;-72
2022/11/19 12:05:02;;;;;;;12.93;4.97;;;8.30;70.20;;;;;;5093216;28;20085;-76
2022/11/19 12:08:00;;;;;;;9.00;5.13;;;8.30;72.00;;;;;;5075307;28;20039;-73
2022/11/19 12:10:54;;;;;;;11.15;4.93;;;8.40;72.00;;;;;;5093089;28;20415;-71
2022/11/19 12:13:31;;;;;;;8.55;4.75;;;8.50;70.90;;;;;;5091910;28;20438;-71
2022/11/19 12:16:09;;;;;;;6.25;4.28;;;8.20;70.60;;;;;;5093474;28;20028;-73
2022/11/19 12:18:59;;;;;;;8.07;4.50;;;8.00;71.20;;;;;;5093455;28;20024;-72
2022/11/19 12:21:39;;;;;;;10.23;4.28;;;8.10;71.40;;;;;;5093462;28;20024;-74
2022/11/19 12:24:26;;;;;;;9.48;4.85;;;8.00;69.60;;;;;;5093333;28;20024;-72
2022/11/19 12:27:07;;;;;;;9.88;4.65;;;8.00;69.90;;;;;;5093114;28;20036;-73
2022/11/19 12:29:39;;;;;;;7.45;4.25;;;8.00;70.30;;;;;;5092969;28;20109;-72
2022/11/19 12:32:06;;;;;;;11.75;5.35;;;8.00;71.40;;;;;;5074900;28;20028;-71
2022/11/19 12:35:07;;;;;;;13.95;6.43;;;8.20;71.00;;;;;;5092708;28;20462;-70
2022/11/19 12:38:04;;;;;;;47.20;20.67;;;8.20;70.40;;;;;;5074500;28;20119;-72
2022/11/19 12:40:30;;;;;;;10.05;5.53;;;8.20;70.50;;;;;;5092710;28;20173;-72
2022/11/19 12:43:34;;;;;;;9.73;5.05;;;8.20;69.50;;;;;;5092349;28;20111;-72
2022/11/19 12:46:23;;;;;;;7.47;3.80;;;8.10;69.60;;;;;;5074697;28;20036;-72
2022/11/19 12:49:10;;;;;;;7.68;4.47;;;8.00;68.80;;;;;;5074563;28;20054;-74
2022/11/19 12:51:54;;;;;;;7.60;4.13;;;8.10;70.10;;;;;;5092503;28;20051;-72
2022/11/19 12:54:25;;;;;;;8.23;4.50;;;8.00;68.80;;;;;;5093038;28;20020;-73
2022/11/19 12:57:15;;;;;;;21.65;10.55;;;7.90;69.40;;;;;;5092494;28;20036;-73
2022/11/19 12:59:53;;;;;;;13.15;5.40;;;7.90;69.60;;;;;;5092476;28;20024;-72
2022/11/19 13:02:26;;;;;;;8.57;4.30;;;8.00;74.00;;;;;;5074353;28;20374;-73
2022/11/19 13:04:59;;;;;;;7.25;3.90;;;8.10;72.80;;;;;;5074471;28;20028;-73
2022/11/19 13:07:31;;;;;;;6.47;3.90;;;8.10;70.80;;;;;;5092355;28;20491;-74
2022/11/19 13:10:21;;;;;;;6.95;3.60;;;7.90;70.00;;;;;;5074171;28;20335;-72
2022/11/19 13:12:50;;;;;;;11.00;3.83;;;7.90;70.50;;;;;;5074103;28;20028;-71
2022/11/19 13:15:37;;;;;;;8.10;3.90;;;7.90;69.70;;;;;;5074667;28;20362;-72
2022/11/19 13:18:09;;;;;;;15.52;4.15;;;7.60;69.30;;;;;;5092220;28;20115;-74
2022/11/19 13:20:46;;;;;;;7.85;4.13;;;7.60;70.70;;;;;;5091775;28;20542;-74
2022/11/19 13:23:21;;;;;;;8.65;4.13;;;7.60;70.00;;;;;;5091687;28;20036;-74
2022/11/19 13:26:19;;;;;;;9.10;3.55;;;7.60;70.40;;;;;;5091375;28;20395;-74
2022/11/19 13:29:26;;;;;;;7.75;3.55;;;7.70;70.90;;;;;;5091636;28;20050;-73
2022/11/19 13:31:59;;;;;;;11.38;4.78;;;7.70;70.30;;;;;;5091076;28;20020;-73
2022/11/19 13:34:32;;;;;;;16.63;5.28;;;7.70;71.60;;;;;;5073564;28;20020;-74